createdAt,value
2018-05-27T00:01:53.061Z,36.04
2018-05-27T00:04:19.358Z,36.04
2018-05-27T00:06:45.983Z,36.10
2018-05-27T00:09:12.370Z,36.17
2018-05-27T00:11:38.753Z,36.21
2018-05-27T00:14:05.533Z,36.17
2018-05-27T00:16:31.974Z,36.27
2018-05-27T00:18:58.178Z,36.25
2018-05-27T00:21:24.828Z,36.24
2018-05-27T00:23:51.193Z,36.26
2018-05-27T00:26:17.425Z,36.35
2018-05-27T00:28:43.991Z,36.44
2018-05-27T00:31:10.352Z,36.55
2018-05-27T00:33:36.441Z,36.60
2018-05-27T00:36:03.553Z,36.61
2018-05-27T00:38:30.178Z,36.64
2018-05-27T00:40:56.359Z,36.65
2018-05-27T00:43:23.120Z,36.73
2018-05-27T00:45:49.574Z,36.75
2018-05-27T00:48:15.643Z,36.74
2018-05-27T00:50:42.548Z,36.76
2018-05-27T00:53:13.011Z,36.78
2018-05-27T00:55:39.174Z,36.81
2018-05-27T00:58:05.689Z,36.87
2018-05-27T01:00:32.119Z,36.89
2018-05-27T01:02:58.434Z,36.98
2018-05-27T01:05:25.083Z,37.01
2018-05-27T01:07:51.539Z,37.05
2018-05-27T01:10:17.808Z,37.18
2018-05-27T01:12:44.443Z,37.20
2018-05-27T01:15:10.686Z,37.24
2018-05-27T01:17:36.804Z,37.31
2018-05-27T01:20:03.377Z,37.38
2018-05-27T01:22:29.860Z,37.44
2018-05-27T01:24:56.111Z,37.48
2018-05-27T01:29:58.290Z,37.67
2018-05-27T01:32:24.507Z,37.64
2018-05-27T01:34:50.698Z,37.65
2018-05-27T01:39:54.793Z,37.72
2018-05-27T01:42:21.015Z,37.78
2018-05-27T01:44:47.273Z,37.82
2018-05-27T01:47:13.965Z,37.86
2018-05-27T01:49:40.189Z,37.88
2018-05-27T01:52:06.410Z,37.92
2018-05-27T01:54:33.183Z,37.98
2018-05-27T01:56:59.361Z,38.04
2018-05-27T01:59:25.569Z,38.11
2018-05-27T02:01:52.778Z,38.19
2018-05-27T02:04:19.036Z,38.18
2018-05-27T02:06:45.133Z,38.26
2018-05-27T02:09:11.979Z,38.31
2018-05-27T02:11:38.088Z,38.34
2018-05-27T02:14:04.318Z,38.37
2018-05-27T02:16:31.204Z,38.46
2018-05-27T02:18:57.409Z,38.53
2018-05-27T02:21:23.476Z,38.58
2018-05-27T02:23:50.797Z,38.57
2018-05-27T02:26:17.079Z,38.59
2018-05-27T02:28:43.314Z,38.61
2018-05-27T02:31:10.508Z,38.66
2018-05-27T02:33:36.620Z,38.66
2018-05-27T02:36:02.673Z,38.71
2018-05-27T02:38:29.437Z,38.80
2018-05-27T02:40:55.643Z,38.85
2018-05-27T02:43:21.884Z,38.85
2018-05-27T02:45:48.572Z,38.89
2018-05-27T02:48:14.779Z,38.91
2018-05-27T02:50:41.049Z,38.91
2018-05-27T02:53:07.910Z,38.97
2018-05-27T02:55:34.102Z,38.96
2018-05-27T02:58:00.432Z,38.99
2018-05-27T03:00:27.746Z,39.04
2018-05-27T03:02:54.011Z,39.08
2018-05-27T03:05:20.297Z,39.12
2018-05-27T03:07:47.014Z,39.12
2018-05-27T03:10:13.167Z,39.15
2018-05-27T03:12:39.387Z,39.21
2018-05-27T03:15:06.255Z,39.26
2018-05-27T03:17:32.446Z,39.27
2018-05-27T03:19:58.698Z,39.32
2018-05-27T03:22:25.883Z,39.36
2018-05-27T03:24:52.120Z,39.43
2018-05-27T03:27:18.352Z,39.49
2018-05-27T03:29:45.269Z,39.56
2018-05-27T03:32:11.540Z,39.60
2018-05-27T03:34:37.732Z,39.59
2018-05-27T03:37:04.860Z,39.66
2018-05-27T03:39:31.133Z,39.70
2018-05-27T03:41:57.339Z,39.72
2018-05-27T03:44:24.641Z,39.73
2018-05-27T03:46:50.845Z,39.78
2018-05-27T03:49:17.052Z,39.83
2018-05-27T03:51:44.102Z,39.76
2018-05-27T03:54:10.361Z,39.71
2018-05-27T03:56:36.780Z,39.67
2018-05-27T03:59:03.417Z,39.61
2018-05-27T04:01:29.633Z,39.62
2018-05-27T04:04:08.540Z,39.62
2018-05-27T04:06:46.852Z,39.55
2018-05-27T04:09:14.005Z,39.55
2018-05-27T04:11:40.214Z,39.58
2018-05-27T04:14:06.455Z,39.60
2018-05-27T04:19:28.616Z,39.61
2018-05-27T04:21:56.047Z,39.59
2018-05-27T04:24:22.258Z,39.62
2018-05-27T04:26:48.457Z,39.54
2018-05-27T04:29:15.437Z,39.46
2018-05-27T04:31:41.638Z,39.39
2018-05-27T04:34:07.844Z,39.27
2018-05-27T04:36:34.490Z,39.19
2018-05-27T04:39:00.714Z,39.15
2018-05-27T04:41:26.961Z,39.08
2018-05-27T04:43:53.953Z,39.08
2018-05-27T04:46:20.170Z,39.08
2018-05-27T04:48:46.437Z,39.02
2018-05-27T04:51:13.338Z,38.94
2018-05-27T04:53:39.572Z,38.88
2018-05-27T04:56:05.811Z,38.82
2018-05-27T04:58:32.787Z,38.75
2018-05-27T05:00:58.990Z,38.63
2018-05-27T05:03:25.238Z,38.55
2018-05-27T05:05:52.296Z,38.45
2018-05-27T05:08:18.559Z,38.34
2018-05-27T05:10:44.756Z,38.24
2018-05-27T05:13:11.379Z,38.20
2018-05-27T05:15:37.629Z,38.18
2018-05-27T05:18:03.835Z,38.13
2018-05-27T05:20:30.784Z,38.01
2018-05-27T05:22:57.050Z,37.93
2018-05-27T05:25:23.249Z,37.91
2018-05-27T05:27:50.015Z,37.90
2018-05-27T05:30:16.236Z,37.79
2018-05-27T05:32:42.456Z,37.74
2018-05-27T05:35:09.540Z,37.67
2018-05-27T05:37:35.734Z,37.58
2018-05-27T05:40:01.926Z,37.55
2018-05-27T05:42:28.751Z,37.50
2018-05-27T05:44:54.995Z,37.38
2018-05-27T05:47:21.221Z,37.29
2018-05-27T05:49:48.107Z,37.19
2018-05-27T05:52:14.329Z,37.13
2018-05-27T05:54:40.540Z,37.01
2018-05-27T05:57:07.496Z,37.03
2018-05-27T05:59:33.716Z,37.02
2018-05-27T06:01:59.945Z,36.85
2018-05-27T06:04:26.777Z,36.78
2018-05-27T06:06:52.996Z,36.66
2018-05-27T06:09:19.216Z,36.55
2018-05-27T06:11:45.919Z,36.46
2018-05-27T06:14:12.165Z,36.32
2018-05-27T06:16:38.372Z,36.34
2018-05-27T06:19:05.106Z,36.35
2018-05-27T06:21:31.359Z,36.36
2018-05-27T06:23:57.586Z,36.09
2018-05-27T06:26:24.714Z,35.83
2018-05-27T06:28:50.983Z,35.69
2018-05-27T06:31:17.217Z,35.52
2018-05-27T06:33:43.810Z,35.44
2018-05-27T06:36:09.979Z,35.54
2018-05-27T06:38:36.253Z,35.53
2018-05-27T06:41:03.093Z,35.47
2018-05-27T06:43:29.315Z,35.44
2018-05-27T06:45:55.824Z,35.47
2018-05-27T06:48:22.392Z,35.25
2018-05-27T06:50:48.609Z,35.08
2018-05-27T06:53:14.854Z,34.96
2018-05-27T06:55:41.425Z,34.85
2018-05-27T06:58:07.395Z,34.72
2018-05-27T07:00:33.486Z,34.65
2018-05-27T07:02:59.892Z,34.57
2018-05-27T07:05:25.959Z,34.48
2018-05-27T07:07:52.187Z,34.40
2018-05-27T07:10:19.039Z,34.43
2018-05-27T07:12:45.131Z,34.31
2018-05-27T07:15:11.267Z,34.25
2018-05-27T07:17:38.022Z,34.19
2018-05-27T07:20:04.180Z,34.05
2018-05-27T07:22:30.312Z,33.95
2018-05-27T07:24:56.628Z,33.88
2018-05-27T07:27:22.693Z,33.77
2018-05-27T07:29:48.783Z,33.54
2018-05-27T07:32:15.129Z,33.51
2018-05-27T07:34:41.175Z,33.54
2018-05-27T07:37:07.273Z,33.50
2018-05-27T07:39:33.821Z,33.29
2018-05-27T07:41:59.866Z,33.19
2018-05-27T07:44:25.955Z,33.07
2018-05-27T07:46:52.248Z,33.04
2018-05-27T07:49:18.321Z,32.88
2018-05-27T07:51:44.343Z,32.79
2018-05-27T07:54:10.971Z,32.78
2018-05-27T07:56:37.037Z,32.73
2018-05-27T07:59:03.114Z,32.67
2018-05-27T08:01:29.631Z,32.61
2018-05-27T08:03:55.702Z,32.35
2018-05-27T08:06:21.759Z,32.07
2018-05-27T08:08:48.605Z,32.01
2018-05-27T08:11:14.697Z,31.97
2018-05-27T08:13:40.840Z,31.89
2018-05-27T08:16:07.423Z,31.67
2018-05-27T08:18:33.534Z,31.42
2018-05-27T08:20:59.551Z,31.59
2018-05-27T08:23:26.435Z,31.47
2018-05-27T08:25:52.520Z,31.36
2018-05-27T08:28:18.594Z,31.28
2018-05-27T08:30:44.982Z,31.28
2018-05-27T08:33:11.059Z,31.04
2018-05-27T08:35:37.048Z,30.96
2018-05-27T08:38:03.851Z,31.03
2018-05-27T08:40:29.872Z,30.99
2018-05-27T08:42:55.928Z,30.98
2018-05-27T08:45:22.498Z,30.91
2018-05-27T08:47:48.535Z,30.89
2018-05-27T08:50:14.601Z,30.72
2018-05-27T08:52:40.926Z,30.62
2018-05-27T08:55:06.945Z,30.67
2018-05-27T08:57:33.036Z,30.54
2018-05-27T09:02:25.516Z,30.47
2018-05-27T09:04:51.587Z,30.48
2018-05-27T09:07:17.979Z,30.34
2018-05-27T09:09:44.389Z,30.20
2018-05-27T09:12:10.412Z,30.07
2018-05-27T09:14:36.749Z,30.08
2018-05-27T09:17:03.091Z,30.01
2018-05-27T09:19:29.119Z,29.95
2018-05-27T09:21:55.495Z,29.64
2018-05-27T09:24:21.696Z,29.73
2018-05-27T09:26:47.696Z,29.72
2018-05-27T09:29:13.861Z,29.47
2018-05-27T09:31:40.026Z,29.39
2018-05-27T09:34:06.120Z,29.21
2018-05-27T09:36:32.439Z,29.25
2018-05-27T09:38:58.701Z,29.07
2018-05-27T09:41:24.715Z,29.26
2018-05-27T09:43:50.977Z,29.02
2018-05-27T09:46:17.274Z,28.51
2018-05-27T09:48:43.288Z,28.03
2018-05-27T09:51:09.683Z,27.85
2018-05-27T09:53:36.087Z,27.64
2018-05-27T09:56:02.255Z,27.00
2018-05-27T09:58:28.838Z,26.79
2018-05-27T10:00:55.229Z,26.64
2018-05-27T10:03:21.410Z,26.66
2018-05-27T10:05:47.842Z,26.39
2018-05-27T10:08:14.195Z,26.22
2018-05-27T10:10:40.346Z,26.06
2018-05-27T10:13:06.809Z,25.87
2018-05-27T10:15:33.119Z,25.52
2018-05-27T10:17:59.332Z,25.50
2018-05-27T10:20:25.851Z,25.48
2018-05-27T10:22:52.343Z,25.45
2018-05-27T10:25:18.623Z,25.95
2018-05-27T10:27:44.768Z,26.41
2018-05-27T10:30:11.355Z,26.67
2018-05-27T10:32:37.347Z,26.63
2018-05-27T10:35:03.528Z,26.71
2018-05-27T10:37:30.075Z,26.87
2018-05-27T10:39:56.306Z,27.09
2018-05-27T10:42:22.546Z,27.14
2018-05-27T10:44:48.912Z,27.26
2018-05-27T10:47:15.127Z,27.42
2018-05-27T10:49:41.806Z,27.31
2018-05-27T10:52:08.130Z,27.32
2018-05-27T10:54:34.355Z,27.16
2018-05-27T10:57:00.874Z,27.16
2018-05-27T10:59:27.157Z,27.40
2018-05-27T11:01:53.156Z,27.48
2018-05-27T11:04:19.563Z,27.61
2018-05-27T11:06:45.732Z,27.48
2018-05-27T11:09:12.119Z,27.51
2018-05-27T11:11:38.445Z,27.51
2018-05-27T11:14:04.912Z,27.50
2018-05-27T11:16:31.114Z,27.67
2018-05-27T11:18:57.188Z,27.75
2018-05-27T11:21:23.354Z,27.75
2018-05-27T11:23:49.397Z,27.84
2018-05-27T11:26:15.738Z,27.87
2018-05-27T11:28:42.152Z,27.87
2018-05-27T11:31:08.318Z,27.85
2018-05-27T11:33:34.631Z,27.88
2018-05-27T11:36:01.183Z,27.78
2018-05-27T11:38:27.342Z,27.76
2018-05-27T11:40:53.775Z,27.65
2018-05-27T11:43:20.187Z,27.69
2018-05-27T11:45:46.198Z,27.89
2018-05-27T11:48:12.474Z,27.96
2018-05-27T11:50:38.811Z,27.81
2018-05-27T11:53:04.797Z,27.74
2018-05-27T11:55:31.052Z,27.79
2018-05-27T11:57:57.242Z,27.84
2018-05-27T12:00:23.487Z,27.83
2018-05-27T12:02:49.837Z,27.94
2018-05-27T12:05:16.257Z,27.90
2018-05-27T12:07:42.323Z,27.73
2018-05-27T12:10:09.297Z,27.82
2018-05-27T12:12:35.618Z,27.65
2018-05-27T12:15:01.669Z,27.72
2018-05-27T12:17:27.901Z,27.65
2018-05-27T12:19:54.073Z,27.44
2018-05-27T12:22:20.109Z,27.67
2018-05-27T12:24:46.378Z,27.77
2018-05-27T12:27:12.684Z,27.88
2018-05-27T12:29:38.784Z,28.04
2018-05-27T12:32:05.198Z,27.85
2018-05-27T12:34:31.575Z,27.96
2018-05-27T12:36:57.885Z,27.86
2018-05-27T12:39:24.306Z,27.89
2018-05-27T12:41:50.619Z,28.14
2018-05-27T12:44:16.838Z,28.04
2018-05-27T12:46:43.217Z,28.06
2018-05-27T12:49:09.618Z,28.02
2018-05-27T12:51:35.662Z,28.07
2018-05-27T12:54:02.015Z,28.13
2018-05-27T12:56:28.449Z,28.32
2018-05-27T12:58:54.519Z,28.41
2018-05-27T13:01:20.953Z,28.33
2018-05-27T13:03:47.247Z,28.44
2018-05-27T13:06:13.478Z,28.34
2018-05-27T13:08:40.010Z,28.39
2018-05-27T13:11:06.652Z,28.49
2018-05-27T13:13:32.712Z,28.55
2018-05-27T13:15:58.889Z,28.69
2018-05-27T13:18:25.371Z,28.94
2018-05-27T13:20:51.596Z,29.14
2018-05-27T13:23:17.876Z,29.22
2018-05-27T13:25:44.015Z,29.30
2018-05-27T13:28:10.025Z,29.42
2018-05-27T13:30:36.362Z,29.53
2018-05-27T13:33:02.584Z,29.58
2018-05-27T13:35:28.763Z,29.72
2018-05-27T13:37:55.093Z,29.85
2018-05-27T13:40:21.480Z,29.95
2018-05-27T13:42:47.688Z,30.05
2018-05-27T13:45:14.000Z,30.13
2018-05-27T13:47:40.530Z,30.21
2018-05-27T13:50:06.733Z,30.33
2018-05-27T13:52:33.241Z,30.38
2018-05-27T13:54:59.494Z,30.36
2018-05-27T13:57:25.705Z,30.37
2018-05-27T13:59:51.994Z,30.45
2018-05-27T14:02:18.405Z,30.62
2018-05-27T14:04:44.674Z,30.72
2018-05-27T14:07:11.075Z,30.86
2018-05-27T14:09:37.348Z,30.88
2018-05-27T14:12:03.671Z,31.02
2018-05-27T14:14:29.715Z,31.09
2018-05-27T14:16:56.101Z,31.17
2018-05-27T14:19:22.322Z,31.25
2018-05-27T14:21:48.697Z,31.38
2018-05-27T14:24:15.039Z,31.52
2018-05-27T14:26:41.331Z,31.58
2018-05-27T14:29:07.630Z,31.74
2018-05-27T14:31:33.890Z,31.81
2018-05-27T14:34:00.063Z,31.91
2018-05-27T14:36:26.432Z,32.04
2018-05-27T14:38:52.748Z,32.14
2018-05-27T14:41:18.983Z,32.18
2018-05-27T14:43:45.473Z,32.30
2018-05-27T14:46:11.712Z,32.38
2018-05-27T14:48:37.898Z,32.57
2018-05-27T14:51:04.247Z,32.61
2018-05-27T14:53:30.469Z,32.66
2018-05-27T14:55:56.723Z,32.68
2018-05-27T14:58:23.051Z,32.74
2018-05-27T15:00:49.739Z,32.81
2018-05-27T15:03:15.899Z,32.90
2018-05-27T15:05:42.210Z,32.99
2018-05-27T15:08:08.544Z,32.96
2018-05-27T15:10:34.749Z,33.02
2018-05-27T15:13:01.827Z,33.06
2018-05-27T15:15:28.290Z,33.20
2018-05-27T15:17:54.502Z,33.32
2018-05-27T15:20:20.805Z,33.40
2018-05-27T15:22:47.158Z,33.41
2018-05-27T15:25:13.314Z,33.40
2018-05-27T15:27:39.699Z,33.48
2018-05-27T15:30:06.052Z,33.44
2018-05-27T15:32:32.269Z,33.50
2018-05-27T15:34:58.751Z,33.50
2018-05-27T15:37:25.061Z,33.52
2018-05-27T15:39:51.211Z,33.44
2018-05-27T15:42:17.570Z,33.39
2018-05-27T15:44:43.951Z,33.41
2018-05-27T15:47:10.128Z,33.33
2018-05-27T15:49:36.379Z,33.25
2018-05-27T15:52:02.714Z,33.16
2018-05-27T15:54:28.918Z,33.21
2018-05-27T15:56:55.396Z,33.21
2018-05-27T15:59:21.709Z,33.27
2018-05-27T16:01:47.859Z,33.23
2018-05-27T16:04:14.268Z,33.29
2018-05-27T16:06:40.582Z,33.31
2018-05-27T16:09:06.779Z,33.31
2018-05-27T16:11:33.089Z,33.41
2018-05-27T16:13:59.708Z,33.54
2018-05-27T16:16:25.951Z,33.64
2018-05-27T16:18:52.403Z,33.74
2018-05-27T16:21:18.781Z,33.96
2018-05-27T16:23:44.989Z,34.16
2018-05-27T16:26:11.255Z,34.27
2018-05-27T16:28:37.744Z,34.42
2018-05-27T16:31:03.951Z,34.43
2018-05-27T16:33:30.304Z,34.57
2018-05-27T16:35:56.422Z,34.70
2018-05-27T16:38:22.675Z,34.77
2018-05-27T16:40:49.028Z,34.91
2018-05-27T16:43:15.423Z,35.00
2018-05-27T16:45:41.644Z,35.23
2018-05-27T16:48:07.951Z,35.41
2018-05-27T16:50:34.229Z,35.55
2018-05-27T16:53:00.382Z,35.82
2018-05-27T16:55:26.904Z,36.15
2018-05-27T16:57:53.402Z,36.30
2018-05-27T17:00:19.604Z,36.42
2018-05-27T17:02:45.888Z,36.57
2018-05-27T17:05:12.214Z,36.78
2018-05-27T17:07:38.362Z,36.77
2018-05-27T17:10:04.711Z,36.91
2018-05-27T17:12:30.942Z,37.00
2018-05-27T17:14:57.134Z,37.04
2018-05-27T17:17:23.364Z,37.12
2018-05-27T17:19:49.518Z,37.26
2018-05-27T17:22:15.687Z,37.32
2018-05-27T17:24:41.847Z,37.43
2018-05-27T17:27:08.217Z,37.48
2018-05-27T17:29:34.219Z,37.50
2018-05-27T17:32:00.594Z,37.53
2018-05-27T17:34:26.877Z,37.53
2018-05-27T17:36:52.953Z,37.45
2018-05-27T17:39:19.067Z,37.48
2018-05-27T17:41:45.319Z,37.48
2018-05-27T17:44:11.376Z,37.47
2018-05-27T17:46:37.723Z,37.54
2018-05-27T17:49:04.101Z,37.55
2018-05-27T17:51:30.119Z,37.52
2018-05-27T17:53:56.642Z,37.54
2018-05-27T17:56:22.960Z,37.57
2018-05-27T17:58:48.969Z,37.61
2018-05-27T18:01:15.424Z,37.67
2018-05-27T18:03:41.725Z,37.77
2018-05-27T18:06:07.758Z,37.97
2018-05-27T18:08:34.308Z,38.09
2018-05-27T18:11:00.815Z,38.14
2018-05-27T18:13:26.924Z,38.20
2018-05-27T18:15:53.343Z,38.20
2018-05-27T18:18:19.729Z,38.30
2018-05-27T18:20:45.738Z,38.36
2018-05-27T18:23:12.304Z,38.52
2018-05-27T18:25:39.176Z,38.57
2018-05-27T18:28:05.182Z,38.60
2018-05-27T18:30:31.471Z,38.72
2018-05-27T18:32:57.754Z,38.75
2018-05-27T18:35:23.814Z,38.79
2018-05-27T18:37:50.016Z,38.80
2018-05-27T18:40:16.256Z,38.86
2018-05-27T18:42:42.251Z,38.93
2018-05-27T18:45:08.851Z,38.96
2018-05-27T18:47:35.150Z,39.00
2018-05-27T18:50:01.194Z,39.05
2018-05-27T18:52:27.488Z,39.12
2018-05-27T18:54:53.811Z,39.12
2018-05-27T18:57:19.795Z,39.17
2018-05-27T18:59:46.187Z,39.18
2018-05-27T19:02:12.229Z,39.20
2018-05-27T19:04:38.247Z,39.29
2018-05-27T19:07:04.562Z,39.32
2018-05-27T19:09:30.750Z,39.37
2018-05-27T19:11:56.807Z,39.49
2018-05-27T19:14:23.006Z,39.55
2018-05-27T19:16:49.679Z,39.64
2018-05-27T19:19:15.704Z,39.64
2018-05-27T19:21:41.912Z,39.79
2018-05-27T19:26:41.079Z,40.02
2018-05-27T19:29:07.412Z,40.10
2018-05-27T19:31:33.571Z,40.25
2018-05-27T19:33:59.616Z,40.35
2018-05-27T19:36:25.748Z,40.43
2018-05-27T19:38:52.260Z,40.58
2018-05-27T19:41:18.288Z,40.72
2018-05-27T19:43:44.453Z,40.87
2018-05-27T19:46:10.986Z,41.14
2018-05-27T19:48:37.031Z,41.36
2018-05-27T19:51:03.538Z,41.53
2018-05-27T19:53:29.872Z,41.70
2018-05-27T19:55:56.086Z,41.75
2018-05-27T19:58:22.330Z,41.89
2018-05-27T20:00:48.923Z,42.03
2018-05-27T20:03:15.174Z,42.23
2018-05-27T20:05:41.543Z,42.29
2018-05-27T20:08:07.725Z,42.47
2018-05-27T20:10:33.865Z,42.70
2018-05-27T20:13:00.139Z,42.84
2018-05-27T20:15:26.389Z,42.92
2018-05-27T20:17:52.737Z,43.09
2018-05-27T20:20:19.247Z,43.25
2018-05-27T20:22:45.408Z,43.37
2018-05-27T20:25:11.404Z,43.52
2018-05-27T20:27:37.697Z,43.59
2018-05-27T20:30:03.844Z,43.67
2018-05-27T20:32:30.019Z,43.76
2018-05-27T20:34:56.290Z,43.89
2018-05-27T20:37:22.528Z,43.93
2018-05-27T20:39:48.653Z,44.09
2018-05-27T20:42:15.139Z,44.20
2018-05-27T20:44:41.284Z,44.25
2018-05-27T20:47:07.303Z,44.36
2018-05-27T20:49:33.781Z,44.40
2018-05-27T20:51:59.998Z,44.51
2018-05-27T20:54:26.203Z,44.59
2018-05-27T20:56:52.661Z,44.73
2018-05-27T20:59:19.137Z,44.87
2018-05-27T21:01:45.289Z,45.03
2018-05-27T21:04:11.616Z,45.14
2018-05-27T21:06:38.035Z,45.30
2018-05-27T21:09:04.223Z,45.47
2018-05-27T21:11:30.376Z,45.56
2018-05-27T21:13:56.709Z,45.73
2018-05-27T21:16:22.852Z,45.78
2018-05-27T21:18:49.115Z,45.85
2018-05-27T21:21:15.285Z,45.95
2018-05-27T21:23:41.435Z,46.14
2018-05-27T21:26:07.781Z,46.25
2018-05-27T21:28:34.180Z,46.41
2018-05-27T21:31:00.365Z,46.51
2018-05-27T21:33:26.682Z,46.61
2018-05-27T21:35:52.888Z,46.69
2018-05-27T21:38:19.074Z,46.75
2018-05-27T21:40:45.327Z,46.86
2018-05-27T21:43:11.816Z,47.02
2018-05-27T21:45:37.949Z,47.09
2018-05-27T21:48:04.538Z,47.20
2018-05-27T21:50:31.029Z,47.33
2018-05-27T21:52:57.214Z,47.46
2018-05-27T21:55:23.717Z,47.54
2018-05-27T21:57:49.992Z,47.65
2018-05-27T22:00:16.176Z,47.73
2018-05-27T22:02:42.579Z,47.85
2018-05-27T22:05:09.171Z,47.89
2018-05-27T22:07:35.336Z,47.98
2018-05-27T22:10:01.602Z,48.10
2018-05-27T22:12:28.030Z,48.13
2018-05-27T22:14:54.247Z,48.22
2018-05-27T22:17:20.630Z,48.34
2018-05-27T22:19:47.586Z,48.39
2018-05-27T22:22:13.796Z,48.44
2018-05-27T22:24:40.127Z,48.56
2018-05-27T22:27:06.657Z,48.57
2018-05-27T22:29:32.831Z,48.70
2018-05-27T22:31:59.379Z,48.75
2018-05-27T22:34:25.551Z,48.84
2018-05-27T22:36:51.746Z,48.92
2018-05-27T22:39:18.230Z,49.04
2018-05-27T22:41:44.438Z,49.10
2018-05-27T22:44:10.590Z,49.14
2018-05-27T22:46:37.304Z,49.21
2018-05-27T22:49:03.491Z,49.25
2018-05-27T22:51:29.627Z,49.30
2018-05-27T22:53:56.119Z,49.38
2018-05-27T22:56:22.344Z,49.53
2018-05-27T22:58:48.505Z,49.58
2018-05-27T23:01:15.184Z,49.67
2018-05-27T23:03:41.379Z,49.80
2018-05-27T23:06:07.554Z,49.86
2018-05-27T23:08:34.239Z,49.96
2018-05-27T23:11:00.460Z,50.01
2018-05-27T23:13:26.697Z,50.09
2018-05-27T23:15:53.465Z,50.16
2018-05-27T23:18:19.704Z,50.21
2018-05-27T23:20:46.113Z,50.31
2018-05-27T23:23:12.732Z,50.40
2018-05-27T23:25:38.924Z,50.45
2018-05-27T23:28:05.183Z,50.51
2018-05-27T23:30:31.801Z,50.59
2018-05-27T23:32:57.992Z,50.61
2018-05-27T23:35:24.203Z,50.67
2018-05-27T23:37:50.894Z,50.75
2018-05-27T23:40:17.104Z,50.80
2018-05-27T23:42:43.308Z,50.86
2018-05-27T23:45:10.124Z,50.89
2018-05-27T23:47:36.353Z,50.95
2018-05-27T23:50:02.564Z,51.05
2018-05-27T23:52:29.237Z,51.10
2018-05-27T23:54:55.493Z,51.12
2018-05-27T23:57:21.699Z,51.14
2018-05-27T23:59:48.577Z,51.11
